Time;durP1;ratioP1;P1;durP2;ratioP2;P2;SDS_P1;SDS_P2;PMS_P1;PMS_P2;Temp;Humidity;BMP_temperature;BMP_pressure;BME280_temperature;BME280_humidity;BME280_pressure;Samples;Min_cycle;Max_cycle;Signal;HPM_P1;HPM_P2
2024/01/04 00:01:23;;;;;;;5.80;2.80;;;8.40;99.90;;;;;;4993613;28;20229;-72
2024/01/04 00:03:50;;;;;;;4.20;2.90;;;8.40;99.90;;;;;;4997912;28;20700;-72
2024/01/04 00:06:19;;;;;;;6.00;3.05;;;8.30;99.90;;;;;;4989218;28;20662;-70
2024/01/04 00:08:47;;;;;;;6.53;3.97;;;8.40;99.90;;;;;;4989425;28;20202;-70
2024/01/04 00:11:14;;;;;;;4.45;3.13;;;8.30;99.90;;;;;;4985051;28;20202;-71
2024/01/04 00:13:41;;;;;;;9.07;3.83;;;8.30;99.90;;;;;;4995977;28;20198;-71
2024/01/04 00:16:11;;;;;;;3.20;2.58;;;8.30;99.90;;;;;;4991016;28;20202;-72
2024/01/04 00:18:39;;;;;;;3.60;2.50;;;8.30;99.90;;;;;;4994430;28;20213;-71
2024/01/04 00:21:06;;;;;;;6.03;3.05;;;8.30;99.90;;;;;;4994012;28;20198;-70
2024/01/04 00:23:34;;;;;;;3.95;2.65;;;8.30;99.90;;;;;;4996599;28;20303;-70
2024/01/04 00:26:01;;;;;;;4.13;2.38;;;8.20;99.90;;;;;;4993352;28;20214;-71
2024/01/04 00:28:28;;;;;;;5.65;2.60;;;8.30;99.90;;;;;;4983494;28;20637;-71
2024/01/04 00:30:55;;;;;;;3.97;2.35;;;8.30;99.90;;;;;;4997374;28;20234;-71
2024/01/04 00:33:23;;;;;;;11.80;3.20;;;8.30;99.90;;;;;;4995590;28;20257;-71
2024/01/04 00:35:50;;;;;;;6.78;2.40;;;8.30;99.90;;;;;;4986124;28;20265;-70
2024/01/04 00:38:17;;;;;;;2.53;2.10;;;8.30;99.90;;;;;;4991635;28;20211;-69
2024/01/04 00:40:44;;;;;;;1.80;1.35;;;8.10;99.90;;;;;;4990665;28;20198;-71
2024/01/04 00:43:11;;;;;;;3.50;1.70;;;8.20;99.90;;;;;;4989960;28;20268;-72
2024/01/04 00:45:38;;;;;;;7.68;2.33;;;8.20;99.90;;;;;;4990873;28;20207;-70
2024/01/04 00:48:06;;;;;;;3.40;1.50;;;8.20;99.90;;;;;;4991183;28;20202;-72
2024/01/04 00:50:35;;;;;;;3.70;1.75;;;8.10;99.90;;;;;;4991696;28;20619;-70
2024/01/04 00:53:02;;;;;;;2.60;1.27;;;8.00;99.90;;;;;;4995716;28;20261;-69
2024/01/04 00:55:30;;;;;;;4.45;1.48;;;8.10;99.90;;;;;;4984589;28;20207;-69
2024/01/04 00:57:56;;;;;;;2.25;1.20;;;8.10;99.90;;;;;;4995899;28;20238;-69
2024/01/04 01:00:23;;;;;;;6.25;1.70;;;8.00;99.90;;;;;;4995515;28;20218;-69
2024/01/04 01:02:50;;;;;;;1.40;1.15;;;8.00;99.90;;;;;;4993644;28;20619;-69
2024/01/04 01:05:17;;;;;;;4.93;1.38;;;8.10;99.90;;;;;;4982785;28;20301;-69
2024/01/04 01:07:46;;;;;;;4.80;1.45;;;8.10;99.90;;;;;;4985417;28;20210;-70
2024/01/04 01:10:13;;;;;;;1.67;1.45;;;8.00;99.90;;;;;;4979580;28;20206;-69
2024/01/04 01:12:40;;;;;;;3.50;1.98;;;8.10;99.90;;;;;;4989793;28;20269;-70
2024/01/04 01:15:09;;;;;;;5.82;1.52;;;8.00;99.90;;;;;;4989721;28;20206;-70
2024/01/04 01:17:36;;;;;;;1.38;1.10;;;7.90;99.90;;;;;;4988512;28;20214;-71
2024/01/04 01:20:03;;;;;;;2.85;1.83;;;7.80;99.90;;;;;;4993714;28;20536;-71
2024/01/04 01:22:30;;;;;;;6.68;1.20;;;7.80;99.90;;;;;;4993429;28;20293;-72
2024/01/04 01:24:58;;;;;;;2.28;1.15;;;7.60;99.90;;;;;;4988728;28;20593;-72
2024/01/04 01:27:26;;;;;;;3.70;1.00;;;7.60;99.90;;;;;;4984972;28;20287;-71
2024/01/04 01:29:52;;;;;;;1.20;0.80;;;7.50;99.90;;;;;;4996173;28;20292;-70
2024/01/04 01:32:19;;;;;;;5.43;1.40;;;7.50;99.90;;;;;;4990015;28;20312;-69
2024/01/04 01:34:46;;;;;;;1.63;1.50;;;7.50;99.90;;;;;;4992014;28;20696;-69
2024/01/04 01:37:14;;;;;;;2.55;1.30;;;7.40;99.90;;;;;;4990886;28;20212;-71
2024/01/04 01:39:41;;;;;;;1.65;1.55;;;7.40;99.90;;;;;;4991809;28;20230;-69
2024/01/04 01:42:09;;;;;;;3.90;1.85;;;7.40;99.90;;;;;;4998449;28;20257;-70
2024/01/04 01:44:36;;;;;;;1.40;1.30;;;7.30;99.90;;;;;;4991412;28;20281;-69
2024/01/04 01:47:04;;;;;;;1.70;1.40;;;7.30;99.90;;;;;;4992230;28;20767;-72
2024/01/04 01:49:31;;;;;;;5.20;2.92;;;7.30;99.90;;;;;;4994354;28;20214;-69
2024/01/04 01:51:58;;;;;;;9.50;3.65;;;7.20;99.90;;;;;;4990725;28;20222;-69
2024/01/04 01:54:26;;;;;;;5.32;2.13;;;7.30;99.90;;;;;;4997513;28;20292;-72
2024/01/04 01:56:53;;;;;;;6.88;2.00;;;7.30;99.90;;;;;;4989291;28;20645;-71
2024/01/04 01:59:21;;;;;;;3.38;1.63;;;7.20;99.90;;;;;;4991780;28;20642;-71
2024/01/04 02:01:49;;;;;;;2.00;1.10;;;7.20;99.90;;;;;;4992760;28;20288;-69
2024/01/04 02:04:16;;;;;;;1.83;0.98;;;7.10;99.90;;;;;;4993629;28;20222;-71
2024/01/04 02:06:42;;;;;;;1.80;1.70;;;7.10;99.90;;;;;;4983169;28;20500;-71
2024/01/04 02:09:09;;;;;;;2.67;0.80;;;7.10;99.90;;;;;;4992230;28;20268;-70
2024/01/04 02:11:36;;;;;;;3.35;2.00;;;7.10;99.90;;;;;;4994631;28;20668;-72
2024/01/04 02:14:03;;;;;;;3.42;1.48;;;7.10;99.90;;;;;;4986414;28;20237;-68
2024/01/04 02:16:32;;;;;;;2.28;1.20;;;7.10;99.90;;;;;;4994257;28;20234;-71
2024/01/04 02:18:59;;;;;;;15.18;1.00;;;7.20;99.90;;;;;;4990408;28;20549;-71
2024/01/04 02:21:26;;;;;;;2.20;0.95;;;7.10;99.90;;;;;;4993034;28;20637;-70
2024/01/04 02:23:54;;;;;;;1.15;0.95;;;7.10;99.90;;;;;;4994040;28;20222;-71
2024/01/04 02:26:21;;;;;;;1.10;1.00;;;7.10;99.90;;;;;;4994025;28;20206;-71
2024/01/04 02:28:49;;;;;;;2.00;1.00;;;7.10;99.90;;;;;;4994700;28;20625;-70
2024/01/04 02:31:16;;;;;;;1.65;0.77;;;7.10;99.90;;;;;;4989942;28;20230;-71
2024/01/04 02:33:43;;;;;;;3.15;1.20;;;7.00;99.90;;;;;;4992355;28;20229;-69
2024/01/04 02:36:10;;;;;;;4.95;1.08;;;7.00;99.90;;;;;;4993587;28;20206;-72
2024/01/04 02:38:37;;;;;;;2.83;0.73;;;7.00;99.90;;;;;;4990623;28;20751;-71
2024/01/04 02:41:05;;;;;;;2.75;1.88;;;7.00;99.90;;;;;;4985089;28;20238;-71
2024/01/04 02:43:32;;;;;;;1.23;0.70;;;6.90;99.90;;;;;;4993628;28;20295;-69
2024/01/04 02:45:59;;;;;;;2.38;1.20;;;7.00;99.90;;;;;;4989571;28;20252;-72
2024/01/04 02:48:26;;;;;;;3.33;0.73;;;6.90;99.90;;;;;;4988854;28;20730;-70
2024/01/04 02:50:53;;;;;;;5.00;1.15;;;6.90;99.90;;;;;;4994115;28;20302;-70
2024/01/04 02:53:20;;;;;;;1.92;1.10;;;6.90;99.90;;;;;;4995145;28;20226;-70
2024/01/04 02:55:47;;;;;;;5.28;1.58;;;6.90;99.90;;;;;;4993326;28;20265;-70
2024/01/04 02:58:15;;;;;;;2.22;0.90;;;6.90;99.90;;;;;;4990995;28;20293;-71
2024/01/04 03:00:42;;;;;;;1.38;0.85;;;6.90;99.90;;;;;;4993438;28;20579;-70
2024/01/04 03:03:09;;;;;;;3.88;0.82;;;6.90;99.90;;;;;;4987237;28;20265;-69
2024/01/04 03:05:36;;;;;;;3.20;1.38;;;6.90;99.90;;;;;;4993563;28;20233;-71
2024/01/04 03:08:03;;;;;;;3.65;0.80;;;6.80;99.90;;;;;;4992285;28;20639;-69
2024/01/04 03:10:30;;;;;;;2.17;0.77;;;6.80;99.90;;;;;;4994258;28;20676;-71
2024/01/04 03:12:57;;;;;;;4.00;1.00;;;6.80;99.90;;;;;;4996008;28;20295;-69
2024/01/04 03:15:26;;;;;;;1.50;0.95;;;6.70;99.90;;;;;;4986923;28;20664;-72
2024/01/04 03:17:53;;;;;;;0.98;0.60;;;6.70;99.90;;;;;;4993186;28;20238;-70
2024/01/04 03:20:21;;;;;;;1.80;1.10;;;6.70;99.90;;;;;;4991947;28;20206;-70
2024/01/04 03:22:49;;;;;;;3.75;1.10;;;6.60;99.90;;;;;;4994182;28;20310;-69
2024/01/04 03:25:16;;;;;;;1.33;0.68;;;6.70;99.90;;;;;;4992639;28;20257;-69
2024/01/04 03:27:44;;;;;;;1.15;0.70;;;6.70;99.90;;;;;;4985915;28;20698;-69
2024/01/04 03:30:11;;;;;;;1.52;0.85;;;6.60;99.90;;;;;;4987286;28;20313;-71
2024/01/04 03:32:40;;;;;;;1.30;0.70;;;6.70;99.90;;;;;;4992296;28;20260;-71
2024/01/04 03:35:08;;;;;;;3.83;1.70;;;6.60;99.90;;;;;;4990887;28;20203;-70
2024/01/04 03:37:35;;;;;;;1.33;0.70;;;6.70;99.90;;;;;;4992708;28;21432;-69
2024/01/04 03:40:02;;;;;;;7.75;1.23;;;6.60;99.90;;;;;;4992643;28;20583;-70
2024/01/04 03:42:29;;;;;;;1.63;0.90;;;6.60;99.90;;;;;;4989041;28;20273;-71
2024/01/04 03:44:56;;;;;;;1.70;0.73;;;6.60;99.90;;;;;;4992551;28;20288;-70
2024/01/04 03:47:23;;;;;;;2.35;1.00;;;6.60;99.90;;;;;;4990083;28;20211;-71
2024/01/04 03:49:51;;;;;;;0.80;0.60;;;6.60;99.90;;;;;;4999691;28;20623;-70
2024/01/04 03:52:18;;;;;;;3.45;0.90;;;6.50;99.90;;;;;;4988569;28;20262;-71
2024/01/04 03:54:45;;;;;;;1.10;0.70;;;6.50;99.90;;;;;;4993912;28;20198;-70
2024/01/04 03:57:12;;;;;;;2.20;1.00;;;6.40;99.90;;;;;;4993326;28;20664;-71
2024/01/04 03:59:39;;;;;;;2.25;0.98;;;6.40;99.90;;;;;;4990770;28;20350;-70
2024/01/04 04:02:06;;;;;;;1.25;0.80;;;6.40;99.90;;;;;;4993767;28;20226;-71
2024/01/04 04:04:33;;;;;;;4.03;0.98;;;6.40;99.90;;;;;;4994061;28;20229;-72
2024/01/04 04:07:01;;;;;;;2.28;2.08;;;6.40;99.90;;;;;;4983823;28;20210;-70
2024/01/04 04:09:28;;;;;;;3.13;0.93;;;6.40;99.90;;;;;;4991689;28;20210;-71
2024/01/04 04:11:55;;;;;;;1.75;0.82;;;6.40;99.90;;;;;;4984228;28;20269;-71
2024/01/04 04:14:26;;;;;;;0.98;0.88;;;6.40;99.90;;;;;;4994120;28;20260;-71
2024/01/04 04:16:53;;;;;;;1.10;1.00;;;6.20;99.90;;;;;;4996792;28;20229;-70
2024/01/04 04:19:21;;;;;;;1.52;1.40;;;6.20;99.90;;;;;;4993175;28;20276;-70
2024/01/04 04:21:48;;;;;;;1.63;0.60;;;6.10;99.90;;;;;;4992816;28;20261;-70
2024/01/04 04:24:23;;;;;;;0.70;0.50;;;6.10;99.90;;;;;;4993217;28;20242;-70
2024/01/04 04:26:50;;;;;;;1.80;0.80;;;6.00;99.90;;;;;;4986148;28;20301;-68
2024/01/04 04:29:25;;;;;;;2.95;0.70;;;6.00;99.90;;;;;;4998995;28;20237;-71
2024/01/04 04:31:52;;;;;;;0.90;0.70;;;6.00;99.90;;;;;;4991366;28;20307;-71
2024/01/04 04:34:19;;;;;;;2.58;0.90;;;6.00;99.90;;;;;;4987687;28;20264;-71
2024/01/04 04:36:47;;;;;;;1.15;0.70;;;6.00;99.90;;;;;;4995488;28;20264;-69
2024/01/04 04:39:14;;;;;;;1.05;0.95;;;5.90;99.90;;;;;;4992395;28;20206;-71
2024/01/04 04:41:46;;;;;;;1.73;1.00;;;5.90;99.90;;;;;;4993297;28;20222;-70
2024/01/04 04:44:13;;;;;;;9.18;2.58;;;6.00;99.90;;;;;;4992632;28;20692;-69
2024/01/04 04:46:44;;;;;;;2.90;1.45;;;5.90;99.90;;;;;;4996843;28;20260;-71
2024/01/04 04:49:11;;;;;;;3.08;2.28;;;5.90;99.90;;;;;;4989157;28;20238;-68
2024/01/04 04:51:38;;;;;;;3.95;2.47;;;5.90;99.90;;;;;;4984120;28;20265;-70
2024/01/04 04:54:05;;;;;;;3.17;2.03;;;5.80;99.90;;;;;;4994453;28;20253;-70
2024/01/04 04:56:32;;;;;;;3.33;2.72;;;5.80;99.90;;;;;;4987057;28;20201;-72
2024/01/04 04:59:00;;;;;;;2.67;1.75;;;5.70;99.90;;;;;;4993849;28;20246;-69
2024/01/04 05:01:27;;;;;;;3.80;2.20;;;5.70;99.90;;;;;;4989690;28;20269;-68
2024/01/04 05:03:54;;;;;;;4.28;2.50;;;5.70;99.90;;;;;;4985604;28;20703;-70
2024/01/04 05:06:21;;;;;;;5.00;2.20;;;5.60;99.90;;;;;;4992353;28;20281;-69
2024/01/04 05:08:48;;;;;;;12.15;3.72;;;5.60;99.90;;;;;;4992849;28;20264;-70
2024/01/04 05:11:15;;;;;;;5.85;3.20;;;5.60;99.90;;;;;;4988871;28;20288;-70
2024/01/04 05:13:42;;;;;;;5.05;3.10;;;5.60;99.90;;;;;;5001351;28;20264;-71
2024/01/04 05:16:11;;;;;;;7.95;3.25;;;5.60;99.90;;;;;;4997813;28;20206;-72
2024/01/04 05:18:39;;;;;;;7.45;2.92;;;5.60;99.90;;;;;;4998215;28;20233;-70
2024/01/04 05:21:06;;;;;;;7.88;3.33;;;5.60;99.90;;;;;;4992966;28;20205;-69
2024/01/04 05:23:34;;;;;;;5.80;2.78;;;5.70;99.90;;;;;;4995622;28;20214;-69
2024/01/04 05:26:01;;;;;;;5.03;2.58;;;5.70;99.90;;;;;;4996078;28;20570;-69
2024/01/04 05:28:28;;;;;;;9.55;1.95;;;5.60;99.90;;;;;;4994861;28;20551;-71
2024/01/04 05:30:55;;;;;;;4.80;2.30;;;5.50;99.90;;;;;;4994579;28;20363;-70
2024/01/04 05:33:23;;;;;;;6.25;3.17;;;5.50;99.90;;;;;;4989574;28;20253;-73
2024/01/04 05:35:51;;;;;;;6.50;3.05;;;5.60;99.90;;;;;;4992066;28;20244;-70
2024/01/04 05:38:18;;;;;;;5.93;2.53;;;5.60;99.90;;;;;;4992616;28;20202;-70
2024/01/04 05:40:45;;;;;;;5.03;2.50;;;5.50;99.90;;;;;;4985879;28;20552;-70
2024/01/04 05:43:12;;;;;;;3.90;1.77;;;5.40;99.90;;;;;;4996478;28;20315;-70
2024/01/04 05:45:39;;;;;;;3.67;2.00;;;5.40;99.90;;;;;;4984830;28;20598;-72
2024/01/04 05:48:06;;;;;;;2.88;1.80;;;5.40;99.90;;;;;;4989942;28;20210;-70
2024/01/04 05:50:35;;;;;;;6.50;2.60;;;5.40;99.90;;;;;;4994851;28;20679;-70
2024/01/04 05:53:02;;;;;;;2.95;2.00;;;5.40;99.90;;;;;;4993481;28;20265;-71
2024/01/04 05:55:30;;;;;;;7.95;2.85;;;5.30;99.90;;;;;;5001899;28;20206;-71
2024/01/04 05:57:57;;;;;;;6.03;2.55;;;5.40;99.90;;;;;;4989025;28;20233;-70
2024/01/04 06:00:24;;;;;;;3.95;2.45;;;5.30;99.90;;;;;;4995485;28;20210;-69
2024/01/04 06:02:51;;;;;;;5.32;3.15;;;5.30;99.90;;;;;;4986907;28;20348;-69
2024/01/04 06:05:18;;;;;;;5.97;1.90;;;5.40;99.90;;;;;;4986466;28;20595;-70
2024/01/04 06:07:46;;;;;;;3.85;2.50;;;5.30;99.90;;;;;;4991379;28;20703;-69
2024/01/04 06:10:13;;;;;;;4.45;2.28;;;5.20;99.90;;;;;;4985045;28;20198;-70
2024/01/04 06:12:41;;;;;;;3.60;1.80;;;5.20;99.90;;;;;;4983324;28;20267;-70
2024/01/04 06:15:08;;;;;;;3.88;1.27;;;5.20;99.90;;;;;;4988845;28;20195;-70
2024/01/04 06:17:36;;;;;;;5.30;1.95;;;5.20;99.90;;;;;;4985769;28;20215;-70
2024/01/04 06:20:03;;;;;;;3.85;1.80;;;5.20;99.90;;;;;;4990464;28;20202;-69
2024/01/04 06:22:30;;;;;;;7.68;3.85;;;5.20;99.90;;;;;;4994504;28;20257;-70
2024/01/04 06:24:59;;;;;;;3.40;2.40;;;5.20;99.90;;;;;;4985733;28;20226;-72
2024/01/04 06:27:26;;;;;;;4.30;2.78;;;5.20;99.90;;;;;;4993842;28;20205;-72
2024/01/04 06:29:53;;;;;;;4.75;3.10;;;5.20;99.90;;;;;;4990524;28;20214;-71
2024/01/04 06:32:21;;;;;;;8.43;2.78;;;5.20;99.90;;;;;;4990894;28;20231;-70
2024/01/04 06:34:48;;;;;;;9.10;3.65;;;5.30;99.90;;;;;;4994690;28;20208;-70
2024/01/04 06:37:15;;;;;;;4.85;3.25;;;5.30;99.90;;;;;;4993664;28;20198;-72
2024/01/04 06:39:42;;;;;;;5.95;3.67;;;5.30;99.90;;;;;;4993636;28;20213;-71
2024/01/04 06:42:10;;;;;;;8.05;5.53;;;5.30;99.90;;;;;;4989065;28;20276;-69
2024/01/04 06:44:37;;;;;;;7.22;3.92;;;5.30;99.90;;;;;;4995306;28;20695;-69
2024/01/04 06:47:04;;;;;;;6.30;3.90;;;5.20;99.90;;;;;;4992013;28;20209;-69
2024/01/04 06:49:31;;;;;;;9.52;4.65;;;5.20;99.90;;;;;;4993728;28;20202;-72
2024/01/04 06:51:58;;;;;;;5.43;3.60;;;5.20;99.90;;;;;;4993711;28;20717;-69
2024/01/04 06:54:26;;;;;;;8.75;2.80;;;5.20;99.90;;;;;;5000686;28;20260;-71
2024/01/04 06:56:53;;;;;;;3.80;2.80;;;5.20;99.90;;;;;;4984357;28;20213;-71
2024/01/04 06:59:21;;;;;;;15.23;7.35;;;5.20;99.90;;;;;;4994047;28;20245;-71
2024/01/04 07:01:48;;;;;;;7.45;4.05;;;5.20;99.90;;;;;;4994071;28;20222;-71
2024/01/04 07:04:15;;;;;;;6.30;3.00;;;5.20;99.90;;;;;;4989683;28;20198;-70
2024/01/04 07:06:42;;;;;;;5.32;3.45;;;5.20;99.90;;;;;;4983917;28;20713;-69
2024/01/04 07:09:09;;;;;;;4.05;2.50;;;5.30;99.90;;;;;;4991812;28;20240;-71
2024/01/04 07:11:36;;;;;;;6.50;3.53;;;5.20;99.90;;;;;;4993850;28;20280;-72
2024/01/04 07:14:04;;;;;;;7.00;4.00;;;5.20;99.90;;;;;;5002807;28;20202;-69
2024/01/04 07:16:32;;;;;;;6.90;3.35;;;5.10;99.90;;;;;;4988891;28;20265;-70
2024/01/04 07:18:59;;;;;;;9.45;4.20;;;5.10;99.90;;;;;;4991624;28;20205;-70
2024/01/04 07:21:26;;;;;;;4.50;3.00;;;5.10;99.90;;;;;;4990052;28;20250;-71
2024/01/04 07:23:53;;;;;;;8.43;4.25;;;5.10;99.90;;;;;;4997587;28;20209;-69
2024/01/04 07:26:20;;;;;;;6.55;2.85;;;5.10;99.90;;;;;;4992191;28;20605;-70
2024/01/04 07:28:47;;;;;;;2.63;1.88;;;5.10;99.90;;;;;;4989660;28;20268;-68
2024/01/04 07:31:14;;;;;;;6.05;2.58;;;5.10;99.90;;;;;;4986610;28;20210;-69
2024/01/04 07:33:43;;;;;;;5.20;2.25;;;4.90;99.90;;;;;;4994505;28;20205;-70
2024/01/04 07:36:10;;;;;;;3.03;1.85;;;5.00;99.90;;;;;;4993987;28;20235;-68
2024/01/04 07:38:37;;;;;;;4.05;2.28;;;5.10;99.90;;;;;;4993031;28;20249;-72
2024/01/04 07:41:05;;;;;;;4.07;2.28;;;5.00;99.90;;;;;;4989525;28;20269;-70
2024/01/04 07:43:32;;;;;;;3.72;1.98;;;5.10;99.90;;;;;;4995723;28;20205;-69
2024/01/04 07:45:59;;;;;;;4.75;1.70;;;5.00;99.90;;;;;;4987663;28;20281;-70
2024/01/04 07:48:26;;;;;;;5.22;2.22;;;5.10;99.90;;;;;;4992607;28;20684;-71
2024/01/04 07:50:55;;;;;;;1.98;1.60;;;5.20;99.90;;;;;;4993284;28;20281;-71
2024/01/04 07:53:22;;;;;;;5.03;1.98;;;5.20;99.90;;;;;;4985415;28;20214;-72
2024/01/04 07:55:49;;;;;;;2.90;1.75;;;5.10;99.90;;;;;;4995022;28;20194;-73
2024/01/04 07:58:16;;;;;;;3.42;1.90;;;5.00;99.90;;;;;;4990391;28;20214;-73
2024/01/04 08:00:43;;;;;;;3.20;1.75;;;5.00;99.90;;;;;;4992532;28;20503;-72
2024/01/04 08:03:10;;;;;;;3.97;1.80;;;5.00;99.90;;;;;;4992424;28;20225;-71
2024/01/04 08:05:37;;;;;;;1.63;1.52;;;5.10;99.90;;;;;;4985662;28;20253;-71
2024/01/04 08:08:06;;;;;;;3.50;2.33;;;5.00;99.90;;;;;;4992783;28;20210;-72
2024/01/04 08:10:33;;;;;;;6.40;3.78;;;4.90;99.90;;;;;;4985349;28;20215;-75
2024/01/04 08:13:00;;;;;;;6.63;4.57;;;4.90;99.90;;;;;;4982610;28;20233;-71
2024/01/04 08:15:28;;;;;;;6.65;3.88;;;4.80;99.90;;;;;;4989032;28;20206;-73
2024/01/04 08:17:55;;;;;;;9.05;4.32;;;4.90;99.90;;;;;;4984247;28;20256;-74
2024/01/04 08:20:22;;;;;;;8.43;3.85;;;4.80;99.90;;;;;;4988994;28;20257;-72
2024/01/04 08:22:49;;;;;;;4.43;3.42;;;4.90;99.90;;;;;;4986695;28;20569;-70
2024/01/04 08:25:18;;;;;;;7.82;3.72;;;4.90;99.90;;;;;;4986058;28;20226;-71
2024/01/04 08:27:45;;;;;;;4.15;2.75;;;5.00;99.90;;;;;;4988633;28;20210;-69
2024/01/04 08:30:13;;;;;;;4.38;3.30;;;4.90;99.90;;;;;;4989846;28;20259;-72
2024/01/04 08:32:40;;;;;;;6.43;2.90;;;4.80;99.90;;;;;;4994190;28;20226;-70
2024/01/04 08:35:08;;;;;;;6.82;2.55;;;4.80;99.90;;;;;;4994787;28;20220;-74
2024/01/04 08:37:35;;;;;;;2.72;2.38;;;4.80;99.90;;;;;;4991470;28;20573;-74
2024/01/04 08:40:04;;;;;;;3.20;2.00;;;4.80;99.90;;;;;;4994955;28;20202;-70
2024/01/04 08:42:32;;;;;;;5.45;2.40;;;4.90;99.90;;;;;;4996121;28;20236;-72
2024/01/04 08:44:59;;;;;;;4.85;2.70;;;4.90;99.90;;;;;;4997284;28;20228;-72
2024/01/04 08:47:26;;;;;;;8.18;4.43;;;4.90;99.90;;;;;;4996342;28;20547;-75
2024/01/04 08:49:54;;;;;;;5.43;2.90;;;5.00;99.90;;;;;;4995254;28;20631;-73
2024/01/04 08:52:21;;;;;;;13.45;3.58;;;4.80;99.90;;;;;;4996347;28;20272;-75
2024/01/04 08:54:48;;;;;;;3.70;2.00;;;4.90;99.90;;;;;;4997457;28;20205;-74
2024/01/04 08:57:15;;;;;;;3.00;1.88;;;4.80;99.90;;;;;;4995070;28;20738;-71
2024/01/04 08:59:44;;;;;;;4.60;2.67;;;4.80;99.90;;;;;;4997421;28;20197;-74
2024/01/04 09:02:11;;;;;;;1.85;1.70;;;4.80;99.90;;;;;;4988273;28;20226;-72
2024/01/04 09:04:38;;;;;;;2.70;2.13;;;4.70;99.90;;;;;;4993418;28;20735;-76
2024/01/04 09:07:05;;;;;;;3.03;2.67;;;4.60;99.90;;;;;;4994923;28;20198;-73
2024/01/04 09:09:32;;;;;;;3.83;2.85;;;4.60;99.90;;;;;;4986354;28;20211;-74
2024/01/04 09:11:59;;;;;;;2.83;2.53;;;4.70;99.90;;;;;;4991600;28;20266;-75
2024/01/04 09:14:26;;;;;;;6.30;3.75;;;4.80;99.90;;;;;;4996980;28;20276;-74
2024/01/04 09:16:55;;;;;;;4.40;2.33;;;4.90;99.90;;;;;;4999259;28;20200;-73
2024/01/04 09:19:22;;;;;;;6.75;3.13;;;5.00;99.90;;;;;;4983617;28;20215;-74
2024/01/04 09:21:49;;;;;;;3.65;2.80;;;5.10;99.90;;;;;;4993960;28;20218;-76
2024/01/04 09:24:18;;;;;;;3.22;1.65;;;5.10;99.90;;;;;;4998795;28;20220;-75
2024/01/04 09:26:46;;;;;;;4.55;1.85;;;5.10;99.90;;;;;;4991725;28;20230;-74
2024/01/04 09:29:14;;;;;;;5.25;2.15;;;5.00;99.90;;;;;;4992912;28;20237;-75
2024/01/04 09:31:41;;;;;;;2.67;1.63;;;4.90;99.90;;;;;;4992843;28;20229;-75
2024/01/04 09:34:10;;;;;;;7.63;1.60;;;4.80;99.90;;;;;;4990248;28;20289;-74
2024/01/04 09:36:37;;;;;;;7.75;2.33;;;4.70;99.90;;;;;;4996074;28;20198;-76
2024/01/04 09:39:04;;;;;;;5.13;1.88;;;4.70;99.90;;;;;;4994239;28;20253;-73
2024/01/04 09:41:32;;;;;;;3.80;1.05;;;4.70;99.90;;;;;;4990927;28;20566;-72
2024/01/04 09:44:03;;;;;;;2.95;1.30;;;4.70;99.90;;;;;;4995364;28;20209;-76
2024/01/04 09:46:34;;;;;;;2.38;1.48;;;4.80;99.90;;;;;;4983038;28;20256;-73
2024/01/04 09:49:01;;;;;;;2.70;1.70;;;4.90;99.90;;;;;;4992486;28;20205;-73
2024/01/04 09:51:33;;;;;;;4.72;1.60;;;5.10;99.90;;;;;;4985432;28;20341;-74
2024/01/04 09:54:01;;;;;;;3.55;2.25;;;5.30;99.90;;;;;;4988773;28;20214;-75
2024/01/04 09:56:29;;;;;;;2.95;1.50;;;5.50;99.90;;;;;;4981470;28;20207;-73
2024/01/04 09:58:56;;;;;;;3.88;1.55;;;5.60;99.90;;;;;;4993188;28;20202;-74
2024/01/04 10:01:27;;;;;;;5.80;2.03;;;5.60;99.90;;;;;;4989699;28;20736;-73
2024/01/04 10:03:55;;;;;;;3.65;1.65;;;5.60;99.90;;;;;;4992835;28;20280;-74
2024/01/04 10:06:27;;;;;;;8.85;2.95;;;5.60;99.90;;;;;;4984196;28;20231;-74
2024/01/04 10:09:04;;;;;;;2.65;1.70;;;5.50;99.90;;;;;;4992244;28;20222;-75
2024/01/04 10:11:38;;;;;;;6.13;2.30;;;5.50;99.90;;;;;;4990895;28;20284;-74
2024/01/04 10:14:06;;;;;;;2.83;1.95;;;5.50;99.90;;;;;;4984641;28;20237;-72
2024/01/04 10:16:34;;;;;;;4.65;2.40;;;5.50;99.90;;;;;;4992648;28;20205;-72
2024/01/04 10:19:03;;;;;;;3.75;2.38;;;5.50;99.90;;;;;;4993885;28;20198;-73
2024/01/04 10:21:33;;;;;;;2.38;1.95;;;5.50;99.90;;;;;;4987111;28;20230;-72
2024/01/04 10:24:02;;;;;;;5.05;1.95;;;5.70;99.90;;;;;;4995986;28;20656;-72
2024/01/04 10:26:29;;;;;;;5.40;2.00;;;5.80;99.90;;;;;;4991775;28;20586;-73
2024/01/04 10:28:57;;;;;;;3.45;2.05;;;5.90;99.90;;;;;;4991681;28;20210;-74
2024/01/04 10:31:26;;;;;;;1.60;1.20;;;5.90;99.90;;;;;;4993561;28;20238;-73
2024/01/04 10:33:57;;;;;;;2.75;1.30;;;6.00;99.90;;;;;;4994600;28;20281;-71
2024/01/04 10:36:28;;;;;;;3.47;1.33;;;6.00;99.90;;;;;;4992135;28;20209;-72
2024/01/04 10:38:56;;;;;;;3.63;1.67;;;6.20;99.90;;;;;;4991319;28;20248;-74
2024/01/04 10:41:25;;;;;;;3.00;2.00;;;6.30;99.90;;;;;;4992290;28;20223;-72
2024/01/04 10:43:52;;;;;;;4.45;2.25;;;6.30;99.90;;;;;;4986617;28;20231;-73
2024/01/04 10:46:19;;;;;;;4.65;1.92;;;6.10;99.90;;;;;;4991797;28;20222;-71
2024/01/04 10:48:48;;;;;;;4.88;1.88;;;6.10;99.90;;;;;;4985459;28;20211;-72
2024/01/04 10:51:18;;;;;;;5.85;2.55;;;6.00;99.90;;;;;;4984998;28;20245;-74
2024/01/04 10:53:46;;;;;;;5.25;1.70;;;6.10;99.90;;;;;;4980908;28;20214;-72
2024/01/04 10:56:14;;;;;;;5.20;1.50;;;6.10;99.90;;;;;;4992737;28;20233;-73
2024/01/04 10:58:43;;;;;;;8.00;2.00;;;6.10;99.90;;;;;;4984669;28;20621;-72
2024/01/04 11:01:11;;;;;;;4.85;1.73;;;6.10;99.90;;;;;;4989238;28;20202;-70
2024/01/04 11:03:41;;;;;;;2.03;1.52;;;6.20;99.90;;;;;;4993049;28;20731;-72
2024/01/04 11:06:09;;;;;;;3.70;2.05;;;6.00;99.90;;;;;;4992581;28;20222;-74
2024/01/04 11:08:38;;;;;;;3.15;1.98;;;5.90;99.90;;;;;;4992555;28;20218;-74
2024/01/04 11:11:07;;;;;;;4.85;1.88;;;6.10;99.90;;;;;;4990342;28;20210;-72
2024/01/04 11:13:34;;;;;;;4.50;2.03;;;6.10;99.90;;;;;;4986485;28;20214;-75
2024/01/04 11:16:12;;;;;;;2.03;1.70;;;6.20;99.90;;;;;;4990275;28;20206;-74
2024/01/04 11:18:50;;;;;;;2.95;1.77;;;6.30;99.90;;;;;;4981498;28;20630;-73
2024/01/04 11:21:42;;;;;;;3.13;1.95;;;6.40;99.90;;;;;;4987654;28;20229;-73
2024/01/04 11:24:19;;;;;;;3.72;2.55;;;6.20;99.90;;;;;;4989930;28;20252;-72
2024/01/04 11:26:56;;;;;;;3.00;2.70;;;6.10;99.90;;;;;;4993044;28;20217;-74
2024/01/04 11:29:27;;;;;;;4.38;3.63;;;5.90;99.90;;;;;;4990439;28;20214;-72
2024/01/04 11:31:59;;;;;;;5.75;3.92;;;5.90;99.90;;;;;;4986427;28;20256;-72
2024/01/04 11:34:26;;;;;;;5.05;3.67;;;5.80;99.90;;;;;;4995575;28;20617;-74
2024/01/04 11:37:08;;;;;;;5.28;3.92;;;5.70;99.90;;;;;;4992829;28;20205;-73
2024/01/04 11:39:51;;;;;;;8.93;4.15;;;5.70;99.90;;;;;;4989188;28;20643;-72
2024/01/04 11:42:19;;;;;;;6.68;3.90;;;5.50;99.90;;;;;;4993065;28;20321;-76
2024/01/04 11:44:49;;;;;;;5.55;3.58;;;5.50;99.90;;;;;;5005861;28;20236;-75
2024/01/04 11:47:26;;;;;;;3.72;2.88;;;5.50;99.90;;;;;;4994388;28;20232;-73
2024/01/04 11:49:59;;;;;;;4.22;3.67;;;5.50;99.90;;;;;;4991156;28;20249;-72
2024/01/04 11:52:28;;;;;;;4.63;3.05;;;5.50;99.90;;;;;;4989089;28;20312;-71
2024/01/04 11:54:56;;;;;;;5.93;3.45;;;5.50;99.90;;;;;;4988367;28;20285;-73
2024/01/04 11:57:23;;;;;;;20.38;4.05;;;5.60;99.90;;;;;;4990953;28;20297;-71
2024/01/04 11:59:51;;;;;;;3.67;2.55;;;5.60;99.90;;;;;;4992231;28;20214;-72
2024/01/04 12:02:22;;;;;;;3.45;2.45;;;5.60;99.90;;;;;;4991514;28;20257;-72
2024/01/04 12:04:50;;;;;;;5.15;3.42;;;5.60;99.90;;;;;;4993090;28;20567;-72
2024/01/04 12:07:18;;;;;;;4.97;2.85;;;5.70;99.90;;;;;;4991771;28;20649;-70
2024/01/04 12:09:55;;;;;;;4.07;2.75;;;5.60;99.90;;;;;;4993111;28;20608;-74
2024/01/04 12:12:22;;;;;;;5.13;4.53;;;5.60;99.90;;;;;;4989873;28;20222;-72
2024/01/04 12:14:49;;;;;;;4.60;3.35;;;5.50;99.90;;;;;;4996352;28;20201;-71
2024/01/04 12:17:16;;;;;;;4.45;3.30;;;5.50;99.90;;;;;;4994976;28;20202;-71
2024/01/04 12:19:43;;;;;;;10.68;3.85;;;5.50;99.90;;;;;;4997046;28;20613;-71
2024/01/04 12:22:11;;;;;;;4.75;3.22;;;5.50;99.90;;;;;;4996896;28;20268;-73
2024/01/04 12:24:40;;;;;;;3.03;2.25;;;5.60;99.90;;;;;;5001779;28;20205;-71
2024/01/04 12:27:07;;;;;;;10.80;2.38;;;5.50;99.90;;;;;;4997138;28;20220;-73
2024/01/04 12:29:34;;;;;;;4.15;3.33;;;5.50;99.90;;;;;;4995355;28;20260;-74
2024/01/04 12:32:04;;;;;;;5.50;2.47;;;5.50;99.90;;;;;;4996014;28;20222;-75
2024/01/04 12:34:31;;;;;;;2.03;1.77;;;5.40;99.90;;;;;;4995793;28;20303;-74
2024/01/04 12:37:06;;;;;;;2.65;2.05;;;5.40;99.90;;;;;;4996746;28;20627;-73
2024/01/04 12:39:35;;;;;;;2.90;2.65;;;5.40;99.90;;;;;;4993673;28;20209;-71
2024/01/04 12:42:04;;;;;;;4.28;2.15;;;5.50;99.90;;;;;;4994163;28;20225;-70
2024/01/04 12:44:31;;;;;;;3.08;2.67;;;5.50;99.90;;;;;;4997025;28;20210;-70
2024/01/04 12:47:04;;;;;;;4.75;2.35;;;5.60;99.90;;;;;;4995982;28;20636;-70
2024/01/04 12:49:31;;;;;;;3.50;1.98;;;5.40;99.90;;;;;;4985912;28;20206;-75
2024/01/04 12:52:09;;;;;;;2.55;2.25;;;5.50;99.90;;;;;;4995488;28;20295;-73
2024/01/04 12:54:37;;;;;;;4.13;2.53;;;5.50;99.90;;;;;;4993373;28;20205;-74
2024/01/04 12:57:05;;;;;;;2.55;1.95;;;5.50;99.90;;;;;;4995352;28;20261;-70
2024/01/04 12:59:33;;;;;;;7.15;2.38;;;5.50;99.90;;;;;;4994806;28;20249;-71
2024/01/04 13:02:00;;;;;;;2.80;1.80;;;5.40;99.90;;;;;;4992150;28;20597;-71